createdAt,value
2019-04-05T00:02:16.147Z,99.90
2019-04-05T00:04:44.480Z,99.90
2019-04-05T00:07:12.828Z,99.90
2019-04-05T00:09:41.586Z,99.90
2019-04-05T00:12:09.950Z,99.90
2019-04-05T00:14:38.305Z,99.90
2019-04-05T00:17:07.103Z,99.90
2019-04-05T00:19:35.773Z,99.90
2019-04-05T00:22:04.225Z,99.90
2019-04-05T00:24:32.919Z,99.90
2019-04-05T00:27:01.214Z,99.90
2019-04-05T00:29:29.632Z,99.90
2019-04-05T00:31:58.525Z,99.90
2019-04-05T00:34:26.838Z,99.90
2019-04-05T00:36:55.192Z,99.90
2019-04-05T00:39:23.962Z,99.90
2019-04-05T00:41:52.343Z,99.90
2019-04-05T00:44:20.751Z,99.90
2019-04-05T00:46:49.656Z,99.90
2019-04-05T00:49:18.021Z,99.90
2019-04-05T00:51:46.519Z,99.90
2019-04-05T00:54:15.146Z,99.90
2019-04-05T00:56:43.464Z,99.90
2019-04-05T00:59:12.015Z,99.90
2019-04-05T01:01:41.203Z,99.90
2019-04-05T01:04:09.599Z,99.90
2019-04-05T01:06:38.052Z,99.90
2019-04-05T01:09:07.337Z,99.90
2019-04-05T01:11:35.732Z,99.90
2019-04-05T01:14:04.080Z,99.90
2019-04-05T01:16:32.844Z,99.90
2019-04-05T01:19:03.946Z,99.90
2019-04-05T01:21:30.956Z,99.90
2019-04-05T01:24:00.001Z,99.90
2019-04-05T01:26:28.361Z,99.90
2019-04-05T01:28:56.767Z,99.90
2019-04-05T01:31:25.899Z,99.90
2019-04-05T01:33:54.282Z,99.90
2019-04-05T01:36:22.617Z,99.90
2019-04-05T01:38:51.180Z,99.90
2019-04-05T01:41:19.603Z,99.90
2019-04-05T01:43:48.037Z,99.90
2019-04-05T01:46:16.777Z,99.90
2019-04-05T01:48:45.321Z,99.90
2019-04-05T01:51:13.683Z,99.90
2019-04-05T01:53:42.361Z,99.90
2019-04-05T01:56:10.728Z,99.90
2019-04-05T01:58:39.100Z,99.90
2019-04-05T02:01:07.803Z,99.90
2019-04-05T02:03:36.263Z,99.90
2019-04-05T02:06:04.624Z,99.90
2019-04-05T02:08:33.719Z,99.90
2019-04-05T02:11:02.103Z,99.90
2019-04-05T02:13:30.460Z,99.90
2019-04-05T02:16:06.162Z,99.90
2019-04-05T02:18:27.923Z,99.90
2019-04-05T02:20:56.300Z,99.90
2019-04-05T02:23:25.208Z,99.90
2019-04-05T02:25:53.869Z,99.90
2019-04-05T02:28:25.242Z,99.90
2019-04-05T02:30:51.158Z,99.90
2019-04-05T02:33:19.734Z,99.90
2019-04-05T02:35:48.146Z,99.90
2019-04-05T02:38:16.852Z,99.90
2019-04-05T02:40:45.278Z,99.90
2019-04-05T02:43:13.676Z,99.90
2019-04-05T02:45:43.349Z,99.90
2019-04-05T02:48:11.845Z,99.90
2019-04-05T02:50:41.864Z,99.90
2019-04-05T02:53:10.784Z,99.90
2019-04-05T02:55:39.730Z,99.90
2019-04-05T02:58:08.119Z,99.90
2019-04-05T03:00:36.995Z,99.90
2019-04-05T03:03:05.644Z,99.90
2019-04-05T03:05:34.473Z,99.90
2019-04-05T03:08:03.357Z,99.90
2019-04-05T03:10:42.949Z,99.90
2019-04-05T03:13:13.016Z,99.90
2019-04-05T03:15:41.533Z,99.90
2019-04-05T03:18:10.330Z,99.90
2019-04-05T03:20:38.848Z,99.90
2019-04-05T03:23:07.309Z,99.90
2019-04-05T03:25:35.670Z,99.90
2019-04-05T03:28:04.506Z,99.90
2019-04-05T03:30:32.914Z,99.90
2019-04-05T03:33:01.279Z,99.90
2019-04-05T03:35:30.118Z,99.90
2019-04-05T03:37:58.482Z,99.90
2019-04-05T03:40:26.895Z,99.90
2019-04-05T03:42:55.694Z,99.90
2019-04-05T03:45:24.429Z,99.90
2019-04-05T03:47:52.833Z,99.90
2019-04-05T03:50:21.616Z,99.90
2019-04-05T03:52:50.126Z,99.90
2019-04-05T03:55:18.529Z,99.90
2019-04-05T03:57:47.080Z,99.90
2019-04-05T04:00:15.442Z,99.90
2019-04-05T04:02:43.801Z,99.90
2019-04-05T04:05:12.509Z,99.90
2019-04-05T04:07:41.312Z,99.90
2019-04-05T04:10:12.186Z,99.90
2019-04-05T04:12:40.677Z,99.90
2019-04-05T04:15:14.639Z,99.90
2019-04-05T04:17:42.655Z,99.90
2019-04-05T04:20:21.307Z,99.90
2019-04-05T04:22:50.007Z,99.90
2019-04-05T04:25:18.435Z,99.90
2019-04-05T04:27:46.809Z,99.90
2019-04-05T04:30:15.660Z,99.90
2019-04-05T04:32:44.337Z,99.90
2019-04-05T04:35:12.845Z,99.90
2019-04-05T04:37:41.353Z,99.90
2019-04-05T04:40:09.755Z,99.90
2019-04-05T04:42:38.083Z,99.90
2019-04-05T04:45:12.429Z,99.90
2019-04-05T04:47:35.727Z,99.90
2019-04-05T04:50:04.333Z,99.90
2019-04-05T04:52:32.858Z,99.90
2019-04-05T04:55:02.506Z,99.90
2019-04-05T04:57:31.686Z,99.90
2019-04-05T05:00:00.458Z,99.90
2019-04-05T05:02:28.868Z,99.90
2019-04-05T05:04:57.343Z,99.90
2019-04-05T05:07:25.893Z,99.90
2019-04-05T05:09:54.500Z,99.90
2019-04-05T05:12:22.870Z,99.90
2019-04-05T05:14:51.630Z,99.90
2019-04-05T05:17:20.095Z,99.90
2019-04-05T05:19:48.572Z,99.90
2019-04-05T05:22:17.521Z,99.90
2019-04-05T05:24:46.212Z,99.90
2019-04-05T05:27:14.731Z,99.90
2019-04-05T05:29:43.895Z,99.90
2019-04-05T05:32:12.438Z,99.90
2019-04-05T05:34:40.790Z,99.90
2019-04-05T05:37:09.495Z,99.90
2019-04-05T05:39:38.185Z,99.90
2019-04-05T05:42:06.545Z,99.90
2019-04-05T05:44:35.378Z,99.90
2019-04-05T05:47:03.723Z,99.90
2019-04-05T05:49:32.440Z,99.90
2019-04-05T05:52:01.023Z,99.90
2019-04-05T05:54:29.412Z,99.90
2019-04-05T05:56:57.737Z,99.90
2019-04-05T05:59:27.752Z,99.90
2019-04-05T06:01:55.287Z,99.90
2019-04-05T06:04:23.875Z,99.90
2019-04-05T06:06:52.499Z,99.90
2019-04-05T06:09:21.304Z,99.90
2019-04-05T06:11:49.917Z,99.90
2019-04-05T06:14:18.550Z,99.90
2019-04-05T06:16:46.955Z,99.90
2019-04-05T06:19:15.288Z,99.90
2019-04-05T06:21:44.112Z,99.90
2019-04-05T06:24:12.443Z,99.90
2019-04-05T06:26:40.906Z,99.90
2019-04-05T06:29:09.868Z,99.90
2019-04-05T06:31:38.372Z,99.90
2019-04-05T06:34:06.804Z,99.90
2019-04-05T06:36:35.609Z,99.90
2019-04-05T06:39:05.212Z,99.90
2019-04-05T06:41:33.646Z,99.90
2019-04-05T06:44:02.456Z,99.90
2019-04-05T06:46:30.775Z,99.90
2019-04-05T06:48:59.205Z,99.90
2019-04-05T06:51:28.336Z,99.90
2019-04-05T06:53:56.976Z,99.90
2019-04-05T06:56:25.330Z,99.90
2019-04-05T06:58:54.079Z,99.90
2019-04-05T07:01:22.449Z,99.90
2019-04-05T07:03:51.063Z,99.90
2019-04-05T07:06:19.712Z,99.90
2019-04-05T07:08:53.634Z,99.90
2019-04-05T07:11:16.436Z,99.90
2019-04-05T07:13:45.162Z,99.90
2019-04-05T07:16:13.500Z,99.90
2019-04-05T07:18:41.924Z,99.90
2019-04-05T07:21:10.708Z,99.90
2019-04-05T07:23:39.108Z,99.90
2019-04-05T07:26:07.709Z,99.90
2019-04-05T07:28:36.498Z,99.90
2019-04-05T07:31:04.905Z,99.90
2019-04-05T07:33:33.429Z,99.90
2019-04-05T07:36:03.473Z,99.90
2019-04-05T07:38:30.749Z,99.90
2019-04-05T07:40:59.164Z,99.90
2019-04-05T07:43:27.948Z,99.90
2019-04-05T07:45:56.322Z,99.90
2019-04-05T07:48:24.870Z,99.90
2019-04-05T07:50:53.848Z,99.90
2019-04-05T07:53:22.638Z,99.90
2019-04-05T07:55:51.042Z,99.90
2019-04-05T07:58:20.056Z,99.20
2019-04-05T08:00:51.104Z,99.00
2019-04-05T08:03:19.544Z,99.20
2019-04-05T08:05:48.130Z,98.30
2019-04-05T08:08:22.168Z,98.70
2019-04-05T08:10:51.185Z,98.50
2019-04-05T08:13:19.607Z,97.00
2019-04-05T08:15:48.125Z,96.90
2019-04-05T08:18:16.596Z,96.80
2019-04-05T08:20:45.140Z,96.40
2019-04-05T08:23:13.631Z,95.20
2019-04-05T08:25:42.349Z,94.10
2019-04-05T08:28:10.737Z,94.40
2019-04-05T08:30:39.096Z,94.40
2019-04-05T08:33:08.095Z,94.10
2019-04-05T08:35:36.988Z,92.30
2019-04-05T08:38:05.434Z,92.00
2019-04-05T08:40:34.151Z,90.50
2019-04-05T08:43:02.443Z,89.00
2019-04-05T08:45:30.830Z,90.10
2019-04-05T08:47:59.615Z,87.80
2019-04-05T08:50:27.955Z,88.30
2019-04-05T08:52:56.365Z,88.20
2019-04-05T08:55:25.028Z,85.40
2019-04-05T08:57:53.397Z,85.80
2019-04-05T09:00:21.790Z,84.90
2019-04-05T09:02:50.542Z,83.80
2019-04-05T09:05:18.869Z,82.50
2019-04-05T09:07:47.395Z,82.70
2019-04-05T09:10:16.081Z,80.80
2019-04-05T09:12:44.412Z,82.00
2019-04-05T09:15:12.821Z,80.40
2019-04-05T09:17:41.654Z,80.70
2019-04-05T09:20:10.339Z,82.40
2019-04-05T09:22:38.950Z,80.00
2019-04-05T09:25:07.576Z,84.10
2019-04-05T09:27:36.392Z,86.50
2019-04-05T09:30:05.439Z,82.90
2019-04-05T09:32:36.470Z,84.50
2019-04-05T09:35:02.443Z,84.70
2019-04-05T09:37:31.135Z,82.50
2019-04-05T09:40:00.127Z,84.20
2019-04-05T09:42:28.684Z,85.60
2019-04-05T09:44:57.031Z,82.90
2019-04-05T09:47:25.873Z,83.90
2019-04-05T09:49:54.280Z,81.00
2019-04-05T09:52:22.937Z,83.60
2019-04-05T09:54:51.783Z,83.30
2019-04-05T09:57:20.132Z,86.30
2019-04-05T09:59:48.482Z,84.70
2019-04-05T10:02:17.367Z,87.50
2019-04-05T10:04:45.749Z,87.80
2019-04-05T10:07:14.415Z,88.20
2019-04-05T10:09:42.970Z,85.10
2019-04-05T10:12:11.264Z,82.50
2019-04-05T10:14:39.702Z,78.30
2019-04-05T10:17:08.452Z,79.50
2019-04-05T10:19:48.834Z,79.70
2019-04-05T10:22:05.150Z,75.00
2019-04-05T10:24:33.997Z,74.50
2019-04-05T10:27:02.292Z,67.50
2019-04-05T10:29:30.798Z,63.60
2019-04-05T10:31:59.747Z,59.70
2019-04-05T10:34:28.091Z,59.40
2019-04-05T10:36:56.654Z,58.10
2019-04-05T10:39:25.381Z,59.00
2019-04-05T10:42:03.481Z,60.40
2019-04-05T10:44:22.092Z,65.50
2019-04-05T10:46:50.933Z,66.90
2019-04-05T10:49:19.478Z,68.90
2019-04-05T10:51:47.833Z,71.70
2019-04-05T10:54:16.678Z,72.90
2019-04-05T10:56:44.984Z,79.10
2019-04-05T10:59:13.474Z,85.50
2019-04-05T11:01:42.444Z,89.60
2019-04-05T11:04:10.755Z,89.50
2019-04-05T11:06:39.143Z,89.10
2019-04-05T11:09:08.478Z,84.40
2019-04-05T11:11:36.812Z,79.10
2019-04-05T11:14:13.721Z,70.70
2019-04-05T11:16:34.077Z,70.60
2019-04-05T11:19:02.676Z,68.90
2019-04-05T11:21:30.935Z,63.90
2019-04-05T11:23:59.522Z,64.50
2019-04-05T11:26:27.828Z,70.80
2019-04-05T11:28:56.292Z,74.40
2019-04-05T11:31:25.103Z,75.90
2019-04-05T11:33:53.769Z,76.40
2019-04-05T11:36:22.405Z,74.50
2019-04-05T11:38:51.100Z,75.20
2019-04-05T11:41:19.526Z,72.00
2019-04-05T11:43:48.530Z,70.90
2019-04-05T11:46:18.260Z,68.60
2019-04-05T11:48:46.818Z,68.00
2019-04-05T11:51:15.268Z,64.30
2019-04-05T11:53:44.190Z,65.00
2019-04-05T11:56:14.764Z,64.20
2019-04-05T11:58:41.459Z,65.00
2019-04-05T12:01:16.447Z,70.60
2019-04-05T12:03:44.784Z,66.10
2019-04-05T12:06:13.162Z,62.30
2019-04-05T12:08:41.982Z,62.30
2019-04-05T12:11:10.658Z,65.00
2019-04-05T12:13:39.049Z,69.70
2019-04-05T12:16:10.514Z,78.40
2019-04-05T12:18:36.617Z,86.20
2019-04-05T12:21:05.813Z,92.60
2019-04-05T12:23:33.935Z,94.30
2019-04-05T12:26:04.727Z,94.60
2019-04-05T12:28:30.796Z,93.60
2019-04-05T12:30:59.683Z,90.20
2019-04-05T12:33:28.330Z,79.70
2019-04-05T12:35:56.935Z,76.90
2019-04-05T12:38:32.696Z,77.40
2019-04-05T12:41:01.269Z,73.60
2019-04-05T12:43:29.848Z,70.50
2019-04-05T12:45:59.018Z,67.70
2019-04-05T12:48:27.759Z,67.80
2019-04-05T12:51:01.223Z,62.90
2019-04-05T12:53:26.956Z,60.60
2019-04-05T12:55:56.226Z,62.10
2019-04-05T12:58:25.629Z,63.40
2019-04-05T13:00:50.682Z,65.70
2019-04-05T13:03:20.823Z,68.70
2019-04-05T13:05:51.249Z,69.60
2019-04-05T13:08:16.896Z,70.60
2019-04-05T13:10:45.260Z,71.00
2019-04-05T13:13:13.813Z,75.20
2019-04-05T13:15:42.323Z,76.90
2019-04-05T13:18:10.699Z,79.20
2019-04-05T13:20:39.187Z,78.30
2019-04-05T13:23:08.211Z,80.10
2019-04-05T13:25:36.750Z,84.30
2019-04-05T13:28:13.209Z,88.10
2019-04-05T13:30:33.841Z,91.50
2019-04-05T13:33:02.433Z,93.60
2019-04-05T13:35:30.843Z,95.10
2019-04-05T13:38:00.754Z,96.80
2019-04-05T13:40:29.567Z,97.20
2019-04-05T13:42:57.009Z,97.40
2019-04-05T13:45:25.604Z,97.70
2019-04-05T13:47:54.052Z,99.20
2019-04-05T13:50:22.469Z,99.90
2019-04-05T13:52:51.065Z,99.30
2019-04-05T13:55:19.570Z,98.50
2019-04-05T13:57:48.527Z,99.20
2019-04-05T14:00:18.363Z,99.60
2019-04-05T14:02:46.182Z,99.90
2019-04-05T14:05:15.545Z,99.90
2019-04-05T14:07:44.645Z,99.90
2019-04-05T14:10:13.510Z,99.90
2019-04-05T14:12:42.213Z,99.90
2019-04-05T14:15:12.095Z,99.90
2019-04-05T14:17:39.428Z,99.90
2019-04-05T14:20:09.305Z,99.90
2019-04-05T14:22:36.949Z,99.90
2019-04-05T14:25:06.356Z,99.90
2019-04-05T14:27:35.204Z,99.90
2019-04-05T14:30:04.235Z,99.90
2019-04-05T14:32:32.566Z,99.90
2019-04-05T14:35:01.153Z,99.90
2019-04-05T14:37:29.857Z,99.90
2019-04-05T14:39:58.192Z,99.90
2019-04-05T14:42:29.372Z,99.90
2019-04-05T14:44:55.627Z,99.90
2019-04-05T14:47:27.972Z,99.90
2019-04-05T14:49:53.378Z,99.90
2019-04-05T14:52:21.987Z,99.90
2019-04-05T14:54:50.466Z,99.90
2019-04-05T14:57:19.475Z,99.90
2019-04-05T14:59:48.144Z,99.90
2019-04-05T15:02:16.504Z,99.90
2019-04-05T15:04:45.203Z,99.90
2019-04-05T15:07:14.170Z,99.90
2019-04-05T15:09:42.831Z,99.90
2019-04-05T15:12:11.344Z,99.90
2019-04-05T15:14:41.175Z,99.90
2019-04-05T15:17:09.629Z,99.90
2019-04-05T15:19:38.763Z,99.90
2019-04-05T15:22:10.944Z,99.90
2019-04-05T15:24:36.219Z,99.90
2019-04-05T15:27:05.088Z,99.90
2019-04-05T15:29:34.062Z,99.90
2019-04-05T15:32:02.537Z,99.90
2019-04-05T15:34:30.915Z,99.90
2019-04-05T15:37:01.564Z,99.90
2019-04-05T15:39:28.572Z,99.90
2019-04-05T15:41:56.720Z,99.90
2019-04-05T15:44:25.698Z,99.90
2019-04-05T15:46:54.382Z,99.90
2019-04-05T15:49:23.048Z,99.90
2019-04-05T15:51:54.494Z,99.90
2019-04-05T15:54:20.165Z,99.90
2019-04-05T15:56:48.958Z,99.90
2019-04-05T15:59:18.431Z,99.90
2019-04-05T16:01:46.794Z,99.90
2019-04-05T16:04:15.795Z,99.90
2019-04-05T16:06:44.966Z,99.90
2019-04-05T16:09:16.066Z,99.90
2019-04-05T16:11:44.845Z,99.90
2019-04-05T16:14:13.490Z,99.90
2019-04-05T16:16:41.927Z,99.90
2019-04-05T16:19:11.177Z,99.90
2019-04-05T16:21:39.968Z,99.90
2019-04-05T16:24:08.468Z,99.90
2019-04-05T16:26:37.003Z,99.90
2019-04-05T16:29:06.020Z,99.90
2019-04-05T16:31:34.692Z,99.90
2019-04-05T16:34:03.392Z,99.90
2019-04-05T16:36:31.936Z,99.90
2019-04-05T16:39:00.308Z,99.90
2019-04-05T16:41:28.708Z,99.90
2019-04-05T16:43:57.719Z,99.90
2019-04-05T16:46:26.116Z,99.90
2019-04-05T16:48:54.576Z,99.90
2019-04-05T16:51:23.127Z,99.90
2019-04-05T16:53:56.897Z,99.90
2019-04-05T16:56:25.506Z,99.90
2019-04-05T16:58:53.799Z,99.90
2019-04-05T17:01:27.130Z,99.90
2019-04-05T17:03:50.852Z,99.90
2019-04-05T17:06:19.977Z,99.90
2019-04-05T17:08:48.497Z,99.90
2019-04-05T17:11:17.210Z,99.90
2019-04-05T17:13:46.118Z,99.90
2019-04-05T17:16:14.833Z,99.90
2019-04-05T17:18:43.583Z,99.90
2019-04-05T17:21:12.007Z,99.90
2019-04-05T17:23:40.797Z,99.90
2019-04-05T17:26:09.621Z,99.90
2019-04-05T17:28:38.155Z,99.90
2019-04-05T17:31:06.863Z,99.90
2019-04-05T17:33:35.688Z,99.90
2019-04-05T17:36:04.269Z,99.90
2019-04-05T17:38:32.628Z,99.90
2019-04-05T17:41:01.429Z,99.90
2019-04-05T17:43:29.844Z,99.90
2019-04-05T17:45:58.617Z,99.90
2019-04-05T17:48:28.246Z,99.90
2019-04-05T17:50:56.830Z,99.90
2019-04-05T17:53:25.223Z,99.90
2019-04-05T17:55:53.623Z,99.90
2019-04-05T17:58:22.046Z,99.90
2019-04-05T18:00:50.374Z,99.90
2019-04-05T18:03:19.893Z,99.90
2019-04-05T18:05:48.571Z,99.90
2019-04-05T18:08:17.412Z,99.90
2019-04-05T18:10:46.659Z,99.90
2019-04-05T18:13:15.483Z,99.90
2019-04-05T18:15:52.215Z,99.90
2019-04-05T18:18:12.923Z,99.90
2019-04-05T18:20:41.375Z,99.90
2019-04-05T18:23:10.052Z,99.90
2019-04-05T18:25:38.791Z,99.90
2019-04-05T18:28:07.189Z,99.90
2019-04-05T18:30:35.748Z,99.90
2019-04-05T18:33:04.267Z,99.90
2019-04-05T18:35:32.568Z,99.90
2019-04-05T18:38:02.765Z,99.90
2019-04-05T18:40:39.863Z,99.90
2019-04-05T18:42:59.780Z,99.90
2019-04-05T18:45:28.318Z,99.90
2019-04-05T18:47:56.846Z,99.90
2019-04-05T18:50:25.175Z,99.90
2019-04-05T18:52:53.712Z,99.90
2019-04-05T18:55:22.414Z,99.90
2019-04-05T18:57:50.728Z,99.90
2019-04-05T19:00:19.098Z,99.90
2019-04-05T19:02:48.166Z,99.90
2019-04-05T19:05:16.558Z,99.90
2019-04-05T19:07:45.210Z,99.90
2019-04-05T19:10:14.091Z,99.90
2019-04-05T19:12:42.871Z,99.90
2019-04-05T19:15:11.740Z,99.90
2019-04-05T19:17:40.765Z,99.90
2019-04-05T19:20:09.171Z,99.90
2019-04-05T19:22:37.734Z,99.90
2019-04-05T19:25:06.973Z,99.90
2019-04-05T19:27:35.581Z,99.90
2019-04-05T19:49:53.648Z,99.90
2019-04-05T19:52:22.339Z,99.90
2019-04-05T19:54:51.024Z,99.90
2019-04-05T19:57:19.466Z,99.90
2019-04-05T19:59:47.933Z,99.90
2019-04-05T20:02:16.510Z,99.90
2019-04-05T20:04:44.897Z,99.90
2019-04-05T20:07:13.275Z,99.90
2019-04-05T20:09:42.028Z,99.90
2019-04-05T20:12:10.445Z,99.90
2019-04-05T20:14:38.990Z,99.90
2019-04-05T20:17:07.790Z,99.90
2019-04-05T20:19:36.478Z,99.90
2019-04-05T20:22:04.927Z,99.90
2019-04-05T20:24:33.839Z,99.90
2019-04-05T20:27:02.192Z,99.90
2019-04-05T20:29:30.618Z,99.90
2019-04-05T20:31:59.586Z,99.90
2019-04-05T20:34:28.178Z,99.90
2019-04-05T20:36:56.822Z,99.90
2019-04-05T20:39:25.644Z,99.90
2019-04-05T20:41:53.944Z,99.90
2019-04-05T20:44:22.396Z,99.90
2019-04-05T20:46:51.388Z,99.90
2019-04-05T20:49:20.383Z,99.90
2019-04-05T20:51:48.896Z,99.90
2019-04-05T20:54:24.560Z,99.90
2019-04-05T20:56:46.027Z,99.90
2019-04-05T20:59:14.368Z,99.90
2019-04-05T21:01:43.046Z,99.90
2019-04-05T21:04:11.546Z,99.90
2019-04-05T21:06:40.221Z,99.90
2019-04-05T21:09:09.100Z,99.90
2019-04-05T21:11:37.456Z,99.90
2019-04-05T21:14:05.875Z,99.90
2019-04-05T21:16:34.684Z,99.90
2019-04-05T21:19:04.982Z,99.90
2019-04-05T21:21:31.457Z,99.90
2019-04-05T21:24:00.433Z,99.90
2019-04-05T21:26:28.824Z,99.90
2019-04-05T21:28:57.121Z,99.90
2019-04-05T21:31:25.872Z,99.90
2019-04-05T21:33:54.202Z,99.90
2019-04-05T21:36:22.479Z,99.90
2019-04-05T21:38:51.167Z,99.90
2019-04-05T21:41:19.540Z,99.90
2019-04-05T21:43:47.971Z,99.90
2019-04-05T21:46:16.656Z,99.90
2019-04-05T21:48:45.215Z,99.90
2019-04-05T21:51:13.770Z,99.90
2019-04-05T21:53:42.374Z,99.90
2019-04-05T21:56:10.691Z,99.90
2019-04-05T21:58:39.094Z,99.90
2019-04-05T22:01:09.350Z,99.90
2019-04-05T22:03:37.810Z,99.90
2019-04-05T22:06:06.191Z,99.90
2019-04-05T22:08:35.066Z,99.90
2019-04-05T22:11:03.597Z,99.90
2019-04-05T22:13:31.937Z,99.90
2019-04-05T22:16:00.841Z,99.90
2019-04-05T22:18:29.209Z,99.90
2019-04-05T22:20:57.550Z,99.90
2019-04-05T22:23:26.429Z,99.90
2019-04-05T22:25:54.978Z,99.90
2019-04-05T22:28:23.397Z,99.90
2019-04-05T22:30:52.158Z,99.90
2019-04-05T22:33:20.531Z,99.90
2019-04-05T22:35:48.838Z,99.90
2019-04-05T22:38:17.607Z,99.90
2019-04-05T22:40:46.208Z,99.90
2019-04-05T22:43:14.771Z,99.90
2019-04-05T22:45:43.736Z,99.90
2019-04-05T22:48:12.185Z,99.90
2019-04-05T22:50:40.523Z,99.90
2019-04-05T22:53:09.396Z,99.90
2019-04-05T22:55:37.941Z,99.90
2019-04-05T22:58:06.351Z,99.90
2019-04-05T23:00:35.145Z,99.90
2019-04-05T23:03:03.478Z,99.90
2019-04-05T23:05:32.065Z,99.90
2019-04-05T23:08:00.892Z,99.90
2019-04-05T23:10:29.224Z,99.90
2019-04-05T23:12:57.646Z,99.90
2019-04-05T23:15:26.510Z,99.90
2019-04-05T23:17:55.017Z,99.90
2019-04-05T23:20:23.337Z,99.90
2019-04-05T23:22:51.920Z,99.90
2019-04-05T23:25:22.299Z,99.90
2019-04-05T23:27:48.649Z,99.90
2019-04-05T23:30:17.521Z,99.90
2019-04-05T23:32:46.026Z,99.90
2019-04-05T23:35:14.513Z,99.90
2019-04-05T23:37:43.619Z,99.90
2019-04-05T23:40:12.031Z,99.90
2019-04-05T23:42:40.457Z,99.90
2019-04-05T23:45:09.168Z,99.90
2019-04-05T23:47:37.581Z,99.90
2019-04-05T23:50:06.342Z,99.90
2019-04-05T23:52:34.893Z,99.90
2019-04-05T23:55:03.281Z,99.90
2019-04-05T23:57:31.662Z,99.90
